Time;durP1;ratioP1;P1;durP2;ratioP2;P2;SDS_P1;SDS_P2;PMS_P1;PMS_P2;Temp;Humidity;BMP_temperature;BMP_pressure;BME280_temperature;BME280_humidity;BME280_pressure;Samples;Min_cycle;Max_cycle;Signal;HPM_P1;HPM_P2
2022/03/11 00:00:00;;;;;;;12.05;6.55;;;;;;;;;;5012173;28;20433;-86
2022/03/11 00:02:29;;;;;;;14.18;6.43;;;;;;;;;;5014988;28;20038;-83
2022/03/11 00:04:55;;;;;;;12.80;6.15;;;;;;;;;;5013205;28;20034;-84
2022/03/11 00:07:21;;;;;;;11.27;6.35;;;;;;;;;;5007128;28;20033;-86
2022/03/11 00:09:47;;;;;;;11.40;5.95;;;;;;;;;;5006846;28;20053;-84
2022/03/11 00:12:12;;;;;;;9.57;5.72;;;7.60;56.30;;;;;;5006738;28;20076;-87
2022/03/11 00:14:38;;;;;;;10.63;5.72;;;;;;;;;;5007640;28;20034;-85
2022/03/11 00:17:04;;;;;;;13.60;7.03;;;;;;;;;;5008287;28;20033;-90
2022/03/11 00:19:30;;;;;;;11.20;6.60;;;;;;;;;;5009267;28;20061;-85
2022/03/11 00:21:57;;;;;;;12.50;6.65;;;;;;;;;;5010935;28;20034;-84
2022/03/11 00:24:22;;;;;;;16.13;7.18;;;7.30;57.30;;;;;;5007287;28;20029;-84
2022/03/11 00:26:48;;;;;;;12.57;6.45;;;;;;;;;;5017430;28;20038;-85
2022/03/11 00:29:15;;;;;;;11.27;6.50;;;7.20;57.50;;;;;;5025871;28;20033;-84
2022/03/11 00:31:41;;;;;;;9.73;5.97;;;;;;;;;;5021790;28;20052;-85
2022/03/11 00:34:07;;;;;;;10.57;6.25;;;7.10;57.70;;;;;;5007901;28;20061;-85
2022/03/11 00:36:33;;;;;;;14.52;7.15;;;7.10;58.00;;;;;;5009905;28;20084;-84
2022/03/11 00:38:58;;;;;;;14.45;6.10;;;7.10;57.80;;;;;;5011323;28;20041;-83
2022/03/11 00:41:24;;;;;;;11.48;6.57;;;7.10;58.10;;;;;;5010715;28;20037;-83
2022/03/11 00:43:50;;;;;;;10.63;6.15;;;7.10;58.20;;;;;;4993823;28;20137;-86
2022/03/11 00:46:15;;;;;;;11.23;6.78;;;7.00;58.20;;;;;;5012399;28;20064;-85
2022/03/11 00:48:41;;;;;;;12.40;6.70;;;9.40;59.70;;;;;;5009637;28;20472;-85
2022/03/11 00:51:07;;;;;;;13.10;6.90;;;;;;;;;;5002067;28;20850;-88
2022/03/11 00:53:33;;;;;;;12.68;7.00;;;;;;;;;;5006367;28;20042;-87
2022/03/11 00:55:59;;;;;;;12.52;6.05;;;;;;;;;;5023072;28;20038;-86
2022/03/11 00:58:25;;;;;;;17.80;7.15;;;;;;;;;;5025730;28;20026;-85
2022/03/11 01:00:51;;;;;;;11.88;6.20;;;;;;;;;;5026383;28;20033;-87
2022/03/11 01:03:16;;;;;;;13.40;6.22;;;6.70;60.10;;;;;;5007706;28;20038;-85
2022/03/11 01:05:45;;;;;;;13.40;6.93;;;6.60;60.20;;;;;;5005186;28;20038;-86
2022/03/11 01:08:11;;;;;;;12.32;6.35;;;;;;;;;;5009726;28;20426;-85
2022/03/11 01:10:38;;;;;;;14.68;6.72;;;;;;;;;;5011733;28;20026;-86
2022/03/11 01:13:06;;;;;;;10.85;6.57;;;6.50;61.00;;;;;;5010696;28;20049;-87
2022/03/11 01:15:32;;;;;;;12.60;6.13;;;;;;;;;;5014570;28;20099;-85
2022/03/11 01:17:57;;;;;;;16.05;7.63;;;6.40;61.30;;;;;;5012881;28;20030;-86
2022/03/11 01:20:23;;;;;;;10.27;6.43;;;;;;;;;;5014699;28;20034;-85
2022/03/11 01:22:49;;;;;;;12.20;7.05;;;;;;;;;;5016497;28;20551;-85
2022/03/11 01:25:16;;;;;;;10.80;6.50;;;6.30;61.30;;;;;;5013672;28;20058;-84
2022/03/11 01:27:42;;;;;;;13.65;7.72;;;;;;;;;;5024486;28;20045;-86
2022/03/11 01:30:16;;;;;;;13.55;6.95;;;6.30;61.90;;;;;;5015234;28;20038;-87
2022/03/11 01:32:43;;;;;;;11.45;6.55;;;6.20;62.30;;;;;;5014072;28;20026;-83
2022/03/11 01:35:10;;;;;;;12.38;6.82;;;;;;;;;;5032422;28;20117;-85
2022/03/11 01:37:36;;;;;;;12.70;6.57;;;;;;;;;;5016191;28;20411;-86
2022/03/11 01:40:03;;;;;;;12.23;6.78;;;6.50;62.40;;;;;;5015941;28;20022;-84
2022/03/11 01:42:29;;;;;;;10.60;6.32;;;;;;;;;;5013732;28;20025;-83
2022/03/11 01:44:55;;;;;;;12.60;6.18;;;;;;;;;;5013917;28;20562;-81
2022/03/11 01:47:21;;;;;;;13.40;7.07;;;6.10;62.20;;;;;;5012521;28;20022;-84
2022/03/11 01:49:47;;;;;;;12.45;7.00;;;;;;;;;;5013971;28;20030;-84
2022/03/11 01:52:13;;;;;;;15.80;6.38;;;6.00;62.70;;;;;;5018934;28;20038;-81
2022/03/11 01:54:43;;;;;;;12.60;6.55;;;6.00;63.60;;;;;;5023800;28;20030;-84
2022/03/11 01:57:10;;;;;;;11.18;6.65;;;;;;;;;;5019311;28;20122;-80
2022/03/11 01:59:35;;;;;;;13.90;6.47;;;5.90;63.70;;;;;;5015671;28;20034;-82
2022/03/11 02:02:04;;;;;;;12.05;6.43;;;5.80;64.20;;;;;;5015192;28;20041;-82
2022/03/11 02:04:30;;;;;;;13.23;7.30;;;6.20;64.80;;;;;;5029947;28;20033;-84
2022/03/11 02:06:55;;;;;;;11.65;6.20;;;5.90;65.20;;;;;;5016682;28;20033;-85
2022/03/11 02:09:21;;;;;;;13.48;7.25;;;5.80;65.10;;;;;;5013213;28;20038;-83
2022/03/11 02:11:47;;;;;;;11.18;6.57;;;5.80;64.70;;;;;;5012740;28;20038;-84
2022/03/11 02:14:12;;;;;;;15.77;6.40;;;5.70;65.10;;;;;;5012159;28;20074;-83
2022/03/11 02:16:40;;;;;;;11.20;7.13;;;8.50;66.70;;;;;;5013002;28;20030;-82
2022/03/11 02:19:06;;;;;;;13.80;7.05;;;5.60;65.40;;;;;;5017549;28;20022;-83
2022/03/11 02:21:42;;;;;;;11.50;6.78;;;5.70;65.80;;;;;;5009195;28;20037;-81
2022/03/11 02:24:09;;;;;;;11.75;6.53;;;;;;;;;;5014651;28;20034;-83
2022/03/11 02:26:36;;;;;;;11.60;6.10;;;5.60;65.30;;;;;;5015273;28;20046;-82
2022/03/11 02:29:03;;;;;;;12.00;7.10;;;5.60;65.60;;;;;;5016375;28;20480;-85
2022/03/11 02:31:30;;;;;;;12.18;6.45;;;5.60;66.20;;;;;;5015242;28;20034;-85
2022/03/11 02:33:58;;;;;;;10.95;6.10;;;5.50;66.40;;;;;;5013337;28;20033;-82
2022/03/11 02:36:23;;;;;;;13.77;6.85;;;5.50;66.90;;;;;;5013648;28;20049;-84
2022/03/11 02:38:49;;;;;;;11.70;5.93;;;5.50;67.10;;;;;;5014257;28;20080;-86
2022/03/11 02:41:15;;;;;;;11.95;6.78;;;5.40;67.30;;;;;;5019790;28;20025;-85
2022/03/11 02:43:44;;;;;;;12.35;6.28;;;7.90;68.70;;;;;;5013288;28;20029;-85
2022/03/11 02:46:11;;;;;;;12.50;6.28;;;5.40;66.90;;;;;;5015020;28;20060;-86
2022/03/11 02:48:37;;;;;;;13.30;6.57;;;7.30;68.40;;;;;;5012939;28;20598;-87
2022/03/11 02:51:04;;;;;;;11.32;6.32;;;5.30;67.00;;;;;;5016452;28;20049;-87
2022/03/11 02:53:30;;;;;;;11.05;6.28;;;5.30;67.00;;;;;;5015415;28;20053;-85
2022/03/11 02:55:57;;;;;;;11.00;6.05;;;5.20;67.60;;;;;;5019694;28;20025;-83
2022/03/11 02:58:23;;;;;;;9.75;5.95;;;5.30;68.00;;;;;;5012835;28;20037;-86
2022/03/11 03:00:48;;;;;;;10.77;5.80;;;7.40;69.70;;;;;;5019069;28;20034;-84
2022/03/11 03:03:14;;;;;;;12.02;6.93;;;5.20;68.60;;;;;;5015006;28;20026;-84
2022/03/11 03:05:39;;;;;;;11.70;6.13;;;5.10;68.10;;;;;;5015372;28;20031;-82
2022/03/11 03:08:05;;;;;;;14.88;6.47;;;5.10;68.60;;;;;;5018434;28;20032;-85
2022/03/11 03:10:31;;;;;;;12.80;7.10;;;5.10;68.70;;;;;;5014874;28;20041;-85
2022/03/11 03:12:56;;;;;;;12.52;6.43;;;5.10;69.20;;;;;;5013500;28;20040;-85
2022/03/11 03:15:22;;;;;;;11.90;6.40;;;6.60;70.40;;;;;;5018398;28;20022;-83
2022/03/11 03:17:48;;;;;;;11.85;6.80;;;5.00;69.40;;;;;;5013884;28;20026;-85
2022/03/11 03:20:14;;;;;;;12.23;6.00;;;;;;;;;;5014976;28;20036;-86
2022/03/11 03:22:40;;;;;;;10.95;6.50;;;;;;;;;;5013849;28;20033;-83
2022/03/11 03:25:09;;;;;;;12.00;6.10;;;5.00;70.20;;;;;;5017042;28;20022;-88
2022/03/11 03:27:35;;;;;;;13.00;6.65;;;;;;;;;;5015635;28;20022;-84
2022/03/11 03:30:00;;;;;;;13.00;7.50;;;5.00;70.50;;;;;;5011612;28;20026;-84
2022/03/11 03:32:26;;;;;;;12.77;6.50;;;;;;;;;;5017274;28;20116;-82
2022/03/11 03:34:52;;;;;;;12.38;6.97;;;;;;;;;;5016659;28;20038;-83
2022/03/11 03:37:18;;;;;;;12.75;7.20;;;;;;;;;;5014498;28;20087;-84
2022/03/11 03:39:44;;;;;;;12.32;6.45;;;;;;;;;;5014752;28;20109;-83
2022/03/11 03:42:10;;;;;;;13.18;6.43;;;;;;;;;;5019450;28;20072;-85
2022/03/11 03:44:36;;;;;;;11.80;6.75;;;;;;;;;;5014946;28;20034;-83
2022/03/11 03:47:04;;;;;;;11.73;5.90;;;4.80;73.30;;;;;;5018937;28;20431;-83
2022/03/11 03:49:30;;;;;;;12.68;7.30;;;;;;;;;;5014644;28;20041;-83
2022/03/11 03:51:56;;;;;;;13.20;6.60;;;;;;;;;;5020023;28;20065;-81
2022/03/11 03:54:22;;;;;;;13.20;6.95;;;4.80;73.70;;;;;;5007697;28;20158;-86
2022/03/11 03:56:48;;;;;;;14.10;6.88;;;;;;;;;;5013680;28;20034;-84
2022/03/11 03:59:15;;;;;;;13.00;6.68;;;;;;;;;;5020773;28;20062;-83
2022/03/11 04:01:44;;;;;;;12.98;6.97;;;4.70;74.30;;;;;;5033718;28;20093;-85
2022/03/11 04:04:13;;;;;;;13.45;6.15;;;4.70;74.60;;;;;;5017816;28;20030;-83
2022/03/11 04:06:42;;;;;;;12.07;6.20;;;4.70;74.20;;;;;;5019253;28;20029;-85
2022/03/11 04:09:08;;;;;;;13.75;6.85;;;;;;;;;;5014227;28;20029;-87
2022/03/11 04:11:35;;;;;;;13.52;6.60;;;;;;;;;;5014788;28;20030;-86
2022/03/11 04:14:01;;;;;;;17.08;6.50;;;;;;;;;;5019992;28;20026;-82
2022/03/11 04:16:30;;;;;;;14.55;7.50;;;;;;;;;;5032612;28;20025;-82
2022/03/11 04:18:56;;;;;;;16.35;6.97;;;;;;;;;;5015749;28;20022;-83
2022/03/11 04:21:25;;;;;;;11.98;6.57;;;;;;;;;;5015753;28;20053;-85
2022/03/11 04:23:51;;;;;;;12.98;6.72;;;;;;;;;;5021075;28;20030;-84
2022/03/11 04:26:19;;;;;;;13.27;6.85;;;;;;;;;;5003765;28;20073;-83
2022/03/11 04:28:45;;;;;;;12.98;6.68;;;;;;;;;;5034571;28;20108;-82
2022/03/11 04:31:12;;;;;;;12.90;7.15;;;4.50;77.30;;;;;;5034532;28;20057;-81
2022/03/11 04:33:40;;;;;;;13.30;6.97;;;4.50;78.00;;;;;;5019218;28;20030;-81
2022/03/11 04:36:06;;;;;;;12.40;6.93;;;;;;;;;;5016000;28;20072;-82
2022/03/11 04:38:33;;;;;;;13.10;6.28;;;;;;;;;;5034248;28;20092;-82
2022/03/11 04:40:59;;;;;;;13.35;7.03;;;4.50;79.10;;;;;;5029904;28;20098;-82
2022/03/11 04:43:26;;;;;;;13.70;7.15;;;;;;;;;;5018264;28;20041;-82
2022/03/11 04:45:52;;;;;;;12.38;7.13;;;;;;;;;;5016843;28;20083;-82
2022/03/11 04:48:18;;;;;;;13.60;6.75;;;;;;;;;;5017599;28;20030;-82
2022/03/11 04:50:43;;;;;;;14.75;7.72;;;;;;;;;;5019501;28;20042;-82
2022/03/11 04:53:10;;;;;;;12.27;7.05;;;;;;;;;;5021841;28;20022;-85
2022/03/11 04:55:36;;;;;;;12.90;7.75;;;;;;;;;;5018095;28;20031;-84
2022/03/11 04:58:02;;;;;;;12.07;6.63;;;;;;;;;;5018258;28;20025;-83
2022/03/11 05:00:28;;;;;;;15.27;6.97;;;;;;;;;;5019303;28;20483;-85
2022/03/11 05:02:54;;;;;;;16.95;6.60;;;;;;;;;;5035384;28;20058;-84
2022/03/11 05:05:23;;;;;;;14.23;7.38;;;;;;;;;;5018117;28;20042;-81
2022/03/11 05:07:49;;;;;;;13.73;6.68;;;;;;;;;;5015473;28;20026;-83
2022/03/11 05:10:19;;;;;;;14.57;7.82;;;4.30;82.70;;;;;;5018499;28;20030;-83
2022/03/11 05:12:45;;;;;;;15.20;7.18;;;;;;;;;;5017829;28;20028;-81
2022/03/11 05:15:12;;;;;;;16.90;7.28;;;;;;;;;;5017786;28;20616;-84
2022/03/11 05:17:38;;;;;;;12.90;7.63;;;;;;;;;;5016865;28;20022;-86
2022/03/11 05:20:05;;;;;;;16.40;7.45;;;;;;;;;;5017966;28;20026;-85
2022/03/11 05:22:31;;;;;;;12.45;7.20;;;;;;;;;;5014514;28;20135;-81
2022/03/11 05:24:57;;;;;;;15.70;7.20;;;;;;;;;;5010706;28;20464;-82
2022/03/11 05:27:23;;;;;;;14.00;6.65;;;4.20;84.20;;;;;;5020211;28;20037;-81
2022/03/11 05:29:49;;;;;;;13.18;7.53;;;;;;;;;;5017780;28;20013;-84
2022/03/11 05:32:16;;;;;;;15.65;7.25;;;;;;;;;;5018154;28;20032;-82
2022/03/11 05:34:43;;;;;;;11.18;6.80;;;;;;;;;;5015247;28;20088;-80
2022/03/11 05:37:10;;;;;;;13.32;7.25;;;4.20;82.70;;;;;;5031744;28;20025;-83
2022/03/11 05:39:36;;;;;;;18.52;7.03;;;;;;;;;;5014388;28;20060;-88
2022/03/11 05:42:02;;;;;;;15.00;7.00;;;4.30;83.00;;;;;;5021435;28;20033;-88
2022/03/11 05:44:28;;;;;;;14.55;7.57;;;4.30;82.50;;;;;;5025296;28;20030;-86
2022/03/11 05:46:55;;;;;;;15.23;7.70;;;;;;;;;;5030051;28;20135;-88
2022/03/11 05:49:21;;;;;;;13.80;6.95;;;;;;;;;;5021480;28;20010;-88
2022/03/11 05:51:47;;;;;;;15.90;7.80;;;;;;;;;;5035443;22;20048;-81
2022/03/11 05:54:12;;;;;;;15.75;6.53;;;4.30;82.60;;;;;;5022695;28;20037;-83
2022/03/11 05:56:38;;;;;;;14.65;7.22;;;8.10;86.90;;;;;;5018757;28;20025;-84
2022/03/11 05:59:04;;;;;;;11.77;6.72;;;;;;;;;;5025547;28;20029;-86
2022/03/11 06:01:34;;;;;;;13.65;6.93;;;4.30;83.20;;;;;;5011669;28;20034;-86
2022/03/11 06:04:01;;;;;;;12.15;6.10;;;;;;;;;;5037800;28;20038;-84
2022/03/11 06:06:30;;;;;;;12.10;6.43;;;;;;;;;;5028399;28;20030;-87
2022/03/11 06:08:56;;;;;;;18.50;7.20;;;;;;;;;;5002647;28;20103;-88
2022/03/11 06:11:22;;;;;;;11.25;6.60;;;;;;;;;;5034064;28;20622;-87
2022/03/11 06:13:48;;;;;;;13.95;7.90;;;6.30;83.60;;;;;;5003276;28;20026;-87
2022/03/11 06:16:14;;;;;;;13.75;7.13;;;;;;;;;;5027420;28;20045;-85
2022/03/11 06:18:40;;;;;;;13.77;6.45;;;;;;;;;;5011385;28;20105;-86
2022/03/11 06:21:06;;;;;;;14.80;7.03;;;;;;;;;;5002242;28;20569;-88
2022/03/11 06:23:32;;;;;;;13.95;7.05;;;;;;;;;;4996588;28;20259;-86
2022/03/11 06:26:01;;;;;;;15.65;7.78;;;4.40;82.00;;;;;;5002112;28;20108;-85
2022/03/11 06:28:27;;;;;;;13.65;7.00;;;;;;;;;;5016946;28;20041;-87
2022/03/11 06:30:53;;;;;;;11.93;6.55;;;4.40;82.80;;;;;;5017744;28;20033;-88
2022/03/11 06:33:21;;;;;;;12.85;7.07;;;4.50;82.80;;;;;;5006934;28;20033;-83
2022/03/11 06:35:48;;;;;;;13.10;7.20;;;;;;;;;;5009247;28;20030;-87
2022/03/11 06:38:14;;;;;;;16.50;7.82;;;;;;;;;;5004386;28;20084;-85
2022/03/11 06:40:40;;;;;;;13.15;7.72;;;;;;;;;;5024660;28;20057;-86
2022/03/11 06:43:08;;;;;;;14.48;7.28;;;;;;;;;;5022454;28;20025;-85
2022/03/11 06:45:34;;;;;;;13.68;7.22;;;;;;;;;;5005138;28;20034;-89
2022/03/11 06:48:01;;;;;;;13.70;7.55;;;;;;;;;;4996704;28;20037;-89
2022/03/11 06:50:27;;;;;;;16.05;8.48;;;;;;;;;;5002075;28;20034;-89
2022/03/11 06:52:53;;;;;;;13.02;7.65;;;;;;;;;;5016288;28;20029;-89
2022/03/11 06:55:19;;;;;;;19.65;9.02;;;;;;;;;;5013599;28;20030;-87
2022/03/11 06:57:45;;;;;;;16.40;8.15;;;4.80;84.00;;;;;;4999941;28;20030;-89
2022/03/11 07:00:12;;;;;;;14.32;7.60;;;6.50;86.40;;;;;;5021108;28;20025;-88
2022/03/11 07:02:41;;;;;;;14.80;7.88;;;4.90;83.10;;;;;;4997943;28;20101;-85
2022/03/11 07:05:08;;;;;;;14.90;8.40;;;5.00;83.20;;;;;;5020505;28;20032;-89
2022/03/11 07:07:34;;;;;;;13.68;8.38;;;5.00;83.40;;;;;;4986292;28;20117;-84
2022/03/11 07:10:01;;;;;;;16.05;8.38;;;5.80;83.50;;;;;;5004669;28;20048;-87
2022/03/11 07:12:28;;;;;;;15.35;7.97;;;6.20;82.50;;;;;;5005106;28;20034;-85
2022/03/11 07:14:54;;;;;;;16.27;8.43;;;7.20;83.50;;;;;;5021183;28;20048;-89
2022/03/11 07:17:19;;;;;;;16.25;9.13;;;4.50;80.30;;;;;;5004071;28;20022;-88
2022/03/11 07:19:45;;;;;;;17.67;8.60;;;6.70;81.70;;;;;;5003895;28;20037;-85
2022/03/11 07:22:10;;;;;;;17.05;8.63;;;5.40;81.40;;;;;;5003394;28;20036;-84
2022/03/11 07:24:36;;;;;;;15.98;8.82;;;5.50;80.90;;;;;;5018490;28;20041;-87
2022/03/11 07:27:02;;;;;;;14.88;8.73;;;5.50;81.20;;;;;;5018519;28;21065;-86
2022/03/11 07:29:27;;;;;;;16.20;8.63;;;5.60;79.50;;;;;;5003217;28;20117;-85
2022/03/11 07:31:53;;;;;;;17.15;9.35;;;5.60;80.50;;;;;;5000769;28;20030;-82
2022/03/11 07:34:20;;;;;;;16.88;9.10;;;5.70;80.00;;;;;;4992141;28;20037;-87
2022/03/11 07:36:46;;;;;;;17.88;8.80;;;5.60;79.90;;;;;;4987544;28;20036;-87
2022/03/11 07:39:12;;;;;;;18.08;8.88;;;5.80;79.50;;;;;;4994350;28;20022;-86
2022/03/11 07:41:38;;;;;;;19.98;9.02;;;5.70;79.10;;;;;;5016915;28;20056;-86
2022/03/11 07:44:08;;;;;;;17.58;9.32;;;5.80;78.80;;;;;;5018149;28;20806;-87
2022/03/11 07:46:35;;;;;;;18.00;9.88;;;6.00;78.50;;;;;;5003677;28;20034;-86
2022/03/11 07:49:02;;;;;;;16.70;8.90;;;6.10;77.60;;;;;;5004960;28;20041;-90
2022/03/11 07:51:29;;;;;;;16.02;8.95;;;6.70;77.90;;;;;;4999300;28;20026;-89
2022/03/11 07:53:55;;;;;;;17.98;9.50;;;6.90;77.50;;;;;;4998487;28;20029;-86
2022/03/11 07:56:21;;;;;;;17.38;9.75;;;6.50;75.90;;;;;;5021629;28;20053;-82
2022/03/11 07:58:46;;;;;;;17.00;9.05;;;6.50;76.40;;;;;;5015693;28;20026;-83
2022/03/11 08:01:13;;;;;;;17.35;9.50;;;8.80;76.70;;;;;;4982954;28;20084;-83
2022/03/11 08:03:41;;;;;;;18.77;9.80;;;8.60;76.40;;;;;;5018469;28;20025;-87
2022/03/11 08:06:10;;;;;;;17.38;9.02;;;8.80;77.00;;;;;;5001304;28;20121;-89
2022/03/11 08:08:37;;;;;;;16.05;8.82;;;6.80;75.70;;;;;;5003306;28;20091;-87
2022/03/11 08:11:06;;;;;;;16.02;9.18;;;7.00;73.10;;;;;;5000119;28;20144;-84
2022/03/11 08:13:33;;;;;;;17.40;9.40;;;7.00;73.70;;;;;;5005373;28;20290;-84
2022/03/11 08:16:00;;;;;;;16.83;9.70;;;7.00;73.90;;;;;;5015221;28;20117;-84
2022/03/11 08:18:26;;;;;;;16.63;9.70;;;;;;;;;;5005932;28;20022;-85
2022/03/11 08:20:51;;;;;;;18.48;9.82;;;7.40;71.80;;;;;;5003234;28;20026;-84
2022/03/11 08:23:17;;;;;;;17.77;9.98;;;7.40;71.60;;;;;;5003258;28;20542;-87
2022/03/11 08:25:43;;;;;;;15.55;9.25;;;7.70;71.90;;;;;;5002707;28;20402;-84
2022/03/11 08:28:10;;;;;;;17.65;10.18;;;8.60;72.40;;;;;;5004814;28;20034;-83
2022/03/11 08:30:37;;;;;;;18.10;10.15;;;9.60;71.50;;;;;;5014652;28;20042;-86
2022/03/11 08:33:04;;;;;;;19.17;9.80;;;;;;;;;;5001260;28;20033;-88
2022/03/11 08:35:31;;;;;;;19.60;10.05;;;7.70;69.50;;;;;;5003571;28;20052;-82
2022/03/11 08:37:57;;;;;;;19.13;9.88;;;7.70;70.40;;;;;;5007865;28;20451;-85
2022/03/11 08:40:24;;;;;;;18.48;10.25;;;9.40;70.70;;;;;;5001411;28;20033;-87
2022/03/11 08:42:51;;;;;;;15.13;9.68;;;7.90;70.00;;;;;;5022800;28;20034;-85
2022/03/11 08:45:20;;;;;;;18.60;9.52;;;;;;;;;;5005961;28;20038;-85
2022/03/11 08:47:46;;;;;;;18.42;10.13;;;;;;;;;;5009459;28;20120;-83
2022/03/11 08:50:12;;;;;;;16.58;9.85;;;;;;;;;;5019349;28;20044;-85
2022/03/11 08:52:40;;;;;;;18.40;10.10;;;8.10;68.70;;;;;;5005632;28;20032;-88
2022/03/11 08:55:07;;;;;;;18.90;10.02;;;8.20;69.60;;;;;;5009975;28;20097;-84
2022/03/11 08:57:35;;;;;;;18.58;9.52;;;;;;;;;;5011274;28;20084;-83
2022/03/11 09:00:01;;;;;;;16.23;9.23;;;;;;;;;;5005121;28;20030;-85
2022/03/11 09:02:29;;;;;;;18.17;9.57;;;;;;;;;;5006427;28;20035;-87
2022/03/11 09:04:54;;;;;;;18.20;10.02;;;8.80;65.70;;;;;;5024647;28;20041;-85
2022/03/11 09:07:23;;;;;;;16.52;9.43;;;;;;;;;;5008449;28;20026;-84
2022/03/11 09:09:49;;;;;;;16.65;9.30;;;;;;;;;;5007946;28;20495;-84
2022/03/11 09:12:16;;;;;;;18.38;9.50;;;;;;;;;;5008371;28;20037;-88
2022/03/11 09:14:42;;;;;;;16.60;9.27;;;;;;;;;;5030268;28;20294;-86
2022/03/11 09:17:09;;;;;;;19.67;10.52;;;9.20;64.10;;;;;;5007422;28;20026;-85
2022/03/11 09:19:35;;;;;;;17.27;9.38;;;9.10;65.50;;;;;;5009786;28;20034;-89
2022/03/11 09:22:01;;;;;;;18.10;10.40;;;;;;;;;;5037411;28;20122;-87
2022/03/11 09:24:27;;;;;;;16.92;10.48;;;;;;;;;;5004280;28;21170;-85
2022/03/11 09:26:53;;;;;;;19.48;10.05;;;9.40;63.60;;;;;;5039109;28;20037;-86
2022/03/11 09:29:19;;;;;;;15.82;9.88;;;;;;;;;;5013702;28;20056;-86
2022/03/11 09:31:48;;;;;;;17.85;10.27;;;9.70;62.70;;;;;;5011210;28;20037;-86
2022/03/11 09:34:14;;;;;;;17.75;10.48;;;;;;;;;;5015315;28;20030;-88
2022/03/11 09:36:42;;;;;;;15.52;9.70;;;9.70;62.40;;;;;;5017266;28;20029;-84
2022/03/11 09:39:08;;;;;;;16.67;9.60;;;;;;;;;;5026417;28;20030;-86
2022/03/11 09:41:40;;;;;;;16.90;10.38;;;9.70;62.80;;;;;;5015205;28;20092;-86
2022/03/11 09:44:06;;;;;;;22.20;10.23;;;8.00;62.40;;;;;;5008863;28;20164;-84
2022/03/11 09:46:33;;;;;;;18.08;10.48;;;9.00;62.70;;;;;;5008887;28;20030;-84
2022/03/11 09:49:04;;;;;;;16.17;10.50;;;10.00;63.60;;;;;;4986199;28;20041;-85
2022/03/11 09:51:32;;;;;;;21.17;11.27;;;10.00;63.20;;;;;;5022364;28;20026;-83
2022/03/11 09:53:58;;;;;;;17.10;10.07;;;;;;;;;;5004537;28;20026;-85
2022/03/11 09:56:25;;;;;;;18.35;10.75;;;11.30;63.30;;;;;;5025715;28;20176;-84
2022/03/11 09:58:50;;;;;;;19.15;10.98;;;11.40;65.30;;;;;;4990088;28;20030;-86
2022/03/11 10:01:16;;;;;;;16.30;10.05;;;10.40;64.50;;;;;;5000742;28;20053;-83
2022/03/11 10:03:42;;;;;;;17.70;10.88;;;9.20;63.90;;;;;;5019712;28;20434;-83
2022/03/11 10:06:08;;;;;;;18.50;10.93;;;12.80;65.10;;;;;;5024004;28;20022;-87
2022/03/11 10:08:39;;;;;;;19.15;10.60;;;10.80;63.10;;;;;;5011029;28;20033;-86
2022/03/11 10:11:21;;;;;;;19.75;11.57;;;12.60;62.10;;;;;;5025391;28;20472;-86
2022/03/11 10:13:47;;;;;;;16.23;10.43;;;13.00;62.00;;;;;;5025390;28;20041;-86
2022/03/11 10:16:18;;;;;;;19.63;10.75;;;12.30;62.20;;;;;;5007503;28;20094;-84
2022/03/11 10:18:59;;;;;;;16.00;10.27;;;11.40;60.30;;;;;;5014847;28;20029;-85
2022/03/11 10:21:31;;;;;;;;;;;11.40;59.40;;;;;;5005371;28;20041;-84
2022/03/11 10:24:00;;;;;;;17.67;10.60;;;11.00;57.80;;;;;;5022890;28;19913;-86
2022/03/11 10:26:42;;;;;;;22.85;11.13;;;12.00;59.70;;;;;;5002945;28;20039;-85
2022/03/11 10:29:14;;;;;;;19.42;10.85;;;11.80;58.50;;;;;;5006190;28;20032;-86
2022/03/11 10:31:47;;;;;;;20.80;10.80;;;11.70;58.50;;;;;;5022144;28;20033;-86
2022/03/11 10:34:14;;;;;;;16.58;10.00;;;13.50;60.20;;;;;;5008329;28;20112;-86
2022/03/11 10:37:01;;;;;;;18.95;10.38;;;12.70;59.70;;;;;;5026160;28;20025;-83
2022/03/11 10:39:38;;;;;;;17.35;10.50;;;12.10;58.30;;;;;;5009766;28;20034;-88
2022/03/11 10:42:20;;;;;;;16.20;10.02;;;11.90;58.00;;;;;;5029996;28;20022;-84
2022/03/11 10:44:59;;;;;;;16.35;9.77;;;12.10;58.00;;;;;;5008159;28;20030;-84
2022/03/11 10:47:31;;;;;;;17.55;10.60;;;11.00;57.80;;;;;;5014701;28;20498;-83
2022/03/11 10:50:04;;;;;;;17.13;10.95;;;14.00;59.00;;;;;;5005056;28;20045;-87
2022/03/11 10:52:47;;;;;;;22.40;11.45;;;14.00;58.80;;;;;;5020952;28;20026;-85
2022/03/11 10:55:31;;;;;;;18.23;10.00;;;12.20;58.40;;;;;;5007756;28;20032;-87
2022/03/11 10:58:27;;;;;;;18.02;9.98;;;12.40;58.20;;;;;;5032643;28;20041;-88
2022/03/11 11:00:53;;;;;;;18.95;10.10;;;12.40;57.80;;;;;;5018420;28;20517;-86
2022/03/11 11:03:19;;;;;;;16.95;10.27;;;14.00;58.40;;;;;;5006244;28;20089;-86
2022/03/11 11:05:48;;;;;;;16.83;10.73;;;12.70;57.70;;;;;;5007402;28;20026;-86
2022/03/11 11:08:14;;;;;;;19.00;10.65;;;12.60;56.50;;;;;;4986757;28;20033;-85
2022/03/11 11:10:40;;;;;;;19.60;10.30;;;12.80;57.10;;;;;;5008006;28;20116;-88
2022/03/11 11:13:09;;;;;;;19.42;9.93;;;13.10;58.00;;;;;;5006487;28;20057;-89
2022/03/11 11:15:36;;;;;;;18.40;10.52;;;13.30;56.10;;;;;;4999217;28;20036;-87
2022/03/11 11:18:12;;;;;;;19.20;11.07;;;13.60;55.10;;;;;;5001747;28;20018;-88
2022/03/11 11:20:47;;;;;;;16.25;10.18;;;13.30;54.00;;;;;;5023344;28;20029;-87
2022/03/11 11:23:13;;;;;;;20.80;10.50;;;14.20;54.10;;;;;;5021068;28;20038;-86
2022/03/11 11:25:41;;;;;;;16.02;10.57;;;14.40;53.00;;;;;;5005177;28;20030;-86
2022/03/11 11:28:18;;;;;;;15.90;10.13;;;16.20;53.40;;;;;;5005225;28;20022;-89
2022/03/11 11:30:59;;;;;;;16.65;10.23;;;14.60;52.40;;;;;;5006034;28;20487;-86
2022/03/11 11:33:34;;;;;;;15.70;9.85;;;15.20;53.20;;;;;;5008436;28;20037;-87
2022/03/11 11:36:03;;;;;;;15.23;9.80;;;14.30;54.10;;;;;;5025888;28;20048;-83
2022/03/11 11:38:38;;;;;;;16.75;10.18;;;14.30;52.70;;;;;;5003125;28;20060;-87
2022/03/11 11:41:27;;;;;;;18.10;9.90;;;14.30;52.80;;;;;;5023172;28;20026;-87
2022/03/11 11:43:59;;;;;;;16.27;9.23;;;14.30;52.00;;;;;;5002558;28;20061;-88
2022/03/11 11:46:31;;;;;;;15.27;9.50;;;14.30;52.70;;;;;;5004993;28;20030;-87
2022/03/11 11:49:06;;;;;;;26.30;10.60;;;13.50;52.00;;;;;;5022062;28;20034;-84
2022/03/11 11:54:11;;;;;;;20.10;9.75;;;14.50;51.90;;;;;;5030099;28;20054;-84
2022/03/11 11:57:00;;;;;;;17.25;10.15;;;14.60;51.60;;;;;;5033740;28;20036;-83
2022/03/11 11:59:32;;;;;;;21.70;10.10;;;14.70;51.40;;;;;;5018803;28;20026;-84
2022/03/11 12:01:59;;;;;;;17.13;9.70;;;14.70;51.00;;;;;;5012028;28;20112;-86
2022/03/11 12:04:38;;;;;;;17.40;10.82;;;14.80;51.30;;;;;;5023336;28;20413;-83
2022/03/11 12:07:04;;;;;;;18.77;9.48;;;14.70;50.60;;;;;;4998252;28;20029;-82
2022/03/11 12:09:42;;;;;;;19.02;10.52;;;14.80;50.70;;;;;;5018179;28;20025;-83
2022/03/11 12:12:29;;;;;;;18.98;10.02;;;14.80;50.80;;;;;;5016472;28;20394;-85
2022/03/11 12:15:01;;;;;;;17.90;10.10;;;15.00;50.50;;;;;;5031608;28;20021;-83
2022/03/11 12:17:43;;;;;;;17.65;10.32;;;15.10;50.80;;;;;;5021847;28;20029;-85
2022/03/11 12:20:31;;;;;;;15.50;9.32;;;15.10;49.80;;;;;;5035750;28;20052;-82
2022/03/11 12:23:00;;;;;;;15.75;9.52;;;15.10;49.70;;;;;;5010347;28;20029;-82
2022/03/11 12:25:33;;;;;;;19.48;9.93;;;15.00;49.70;;;;;;5014510;28;20029;-83
2022/03/11 12:28:07;;;;;;;16.02;9.95;;;15.10;49.80;;;;;;5012474;28;20022;-87
2022/03/11 12:30:49;;;;;;;18.42;9.68;;;15.10;50.10;;;;;;5017099;28;20345;-81
2022/03/11 12:33:18;;;;;;;22.00;10.25;;;15.20;50.10;;;;;;5021467;28;20033;-86
2022/03/11 12:35:47;;;;;;;20.95;10.48;;;15.30;49.90;;;;;;5019704;28;20025;-85
2022/03/11 12:38:16;;;;;;;20.13;9.68;;;15.40;50.40;;;;;;5008357;28;20026;-86
2022/03/11 12:40:43;;;;;;;19.67;10.07;;;15.40;50.10;;;;;;5013666;28;20456;-83
2022/03/11 12:43:11;;;;;;;16.75;10.30;;;15.50;49.40;;;;;;5012130;28;20385;-82
2022/03/11 12:45:44;;;;;;;17.67;10.30;;;15.50;49.10;;;;;;5008476;28;20132;-85
2022/03/11 12:48:12;;;;;;;17.23;10.25;;;15.60;49.20;;;;;;5017119;28;20088;-84
2022/03/11 12:50:39;;;;;;;17.45;10.50;;;15.60;49.00;;;;;;5017921;28;20089;-82
2022/03/11 12:53:06;;;;;;;16.05;10.75;;;15.90;49.10;;;;;;5010073;28;20036;-85
2022/03/11 12:55:34;;;;;;;18.85;11.00;;;15.80;48.80;;;;;;5001025;28;20030;-86
2022/03/11 12:58:12;;;;;;;23.52;12.25;;;15.80;48.80;;;;;;5024869;28;20309;-83
2022/03/11 13:00:40;;;;;;;19.75;12.95;;;15.90;48.80;;;;;;5015620;28;20034;-81
2022/03/11 13:03:08;;;;;;;21.38;12.75;;;15.90;48.20;;;;;;5011773;28;20064;-84
2022/03/11 13:05:34;;;;;;;22.27;12.30;;;16.00;48.20;;;;;;5040242;28;20084;-84
2022/03/11 13:08:15;;;;;;;22.42;10.43;;;16.10;48.60;;;;;;5023902;28;20041;-85
2022/03/11 13:10:42;;;;;;;19.42;11.60;;;16.20;47.20;;;;;;5024307;28;20382;-84
2022/03/11 13:13:08;;;;;;;20.77;10.98;;;16.30;46.70;;;;;;5023634;28;20121;-83
2022/03/11 13:15:35;;;;;;;15.70;9.45;;;16.30;46.90;;;;;;5023907;28;20022;-81
2022/03/11 13:18:15;;;;;;;17.90;11.48;;;16.40;46.20;;;;;;5023694;28;20567;-84
2022/03/11 13:20:45;;;;;;;15.65;10.13;;;16.40;46.00;;;;;;5040710;28;20059;-85